createdAt,value
2018-11-07T00:00:10.316Z,3.5
2018-11-07T00:00:30.748Z,3.6
2018-11-07T00:00:52.365Z,3.5
2018-11-07T00:01:12.231Z,3.9
2018-11-07T00:01:32.958Z,3.7
2018-11-07T00:01:53.233Z,3.4
2018-11-07T00:02:14.020Z,3.5
2018-11-07T00:02:34.655Z,3.6
2018-11-07T00:02:55.476Z,3.5
2018-11-07T00:03:16.551Z,3.6
2018-11-07T00:03:37.297Z,3.4
2018-11-07T00:03:58.129Z,3.5
2018-11-07T00:04:18.330Z,3.7
2018-11-07T00:04:38.929Z,3.4
2018-11-07T00:04:59.741Z,3.6
2018-11-07T00:05:19.975Z,3.4
2018-11-07T00:05:40.920Z,3.8
2018-11-07T00:06:01.416Z,3.6
2018-11-07T00:06:21.958Z,3.9
2018-11-07T00:06:42.502Z,3.8
2018-11-07T00:07:03.884Z,3.9
2018-11-07T00:07:23.903Z,3.5
2018-11-07T00:07:44.248Z,3.5
2018-11-07T00:08:04.962Z,3.9
2018-11-07T00:08:25.452Z,3.7
2018-11-07T00:08:45.919Z,3.7
2018-11-07T00:09:05.931Z,3.9
2018-11-07T00:09:26.261Z,3.8
2018-11-07T00:09:46.637Z,4.1
2018-11-07T00:10:07.718Z,4
2018-11-07T00:10:27.715Z,4
2018-11-07T00:10:47.490Z,3.7
2018-11-07T00:11:07.201Z,3.8
2018-11-07T00:11:26.858Z,3.9
2018-11-07T00:11:46.625Z,4.4
2018-11-07T00:12:06.192Z,4.3
2018-11-07T00:12:25.729Z,3.9
2018-11-07T00:12:45.741Z,4.4
2018-11-07T00:13:05.809Z,4.1
2018-11-07T00:13:25.916Z,3.7
2018-11-07T00:13:45.900Z,3.9
2018-11-07T00:14:05.625Z,3.8
2018-11-07T00:14:25.474Z,3.8
2018-11-07T00:14:45.456Z,4.2
2018-11-07T00:15:05.164Z,4.1
2018-11-07T00:15:25.018Z,3.7
2018-11-07T00:15:44.596Z,3.8
2018-11-07T00:16:04.281Z,3.5
2018-11-07T00:16:23.914Z,3.6
2018-11-07T00:16:43.570Z,3.6
2018-11-07T00:17:03.154Z,3.7
2018-11-07T00:17:22.714Z,3.8
2018-11-07T00:17:42.325Z,3.7
2018-11-07T00:18:01.902Z,3.3
2018-11-07T00:18:21.472Z,3.3
2018-11-07T00:18:40.991Z,3.6
2018-11-07T00:19:00.563Z,3.5
2018-11-07T00:19:20.112Z,3.5
2018-11-07T00:19:39.639Z,3.3
2018-11-07T00:19:59.242Z,3.8
2018-11-07T00:20:20.481Z,3.8
2018-11-07T00:20:40.352Z,3.7
2018-11-07T00:20:59.907Z,3.5
2018-11-07T00:21:19.468Z,3.6
2018-11-07T00:21:39.116Z,3.5
2018-11-07T00:21:58.813Z,3.5
2018-11-07T00:22:18.359Z,3.3
2018-11-07T00:22:37.898Z,3.3
2018-11-07T00:22:57.664Z,3.8
2018-11-07T00:23:17.105Z,3.7
2018-11-07T00:23:36.670Z,3.2
2018-11-07T00:23:56.295Z,3.3
2018-11-07T00:24:15.962Z,3.4
2018-11-07T00:24:35.675Z,3.3
2018-11-07T00:24:55.259Z,3.2
2018-11-07T00:25:14.895Z,3.3
2018-11-07T00:25:34.467Z,3.4
2018-11-07T00:25:54.013Z,3.5
2018-11-07T00:26:13.670Z,3.3
2018-11-07T00:26:33.371Z,3.4
2018-11-07T00:26:52.745Z,3.5
2018-11-07T00:27:12.376Z,3.6
2018-11-07T00:27:31.934Z,3.6
2018-11-07T00:27:51.502Z,3.5
2018-11-07T00:28:11.074Z,3.7
2018-11-07T00:28:30.647Z,3.4
2018-11-07T00:28:50.285Z,3.3
2018-11-07T00:29:09.820Z,3.3
2018-11-07T00:29:30.356Z,3.4
2018-11-07T00:29:49.999Z,3.8
2018-11-07T00:30:09.645Z,3.4
2018-11-07T00:30:29.217Z,3.7
2018-11-07T00:30:48.769Z,3.7
2018-11-07T00:31:08.327Z,3.9
2018-11-07T00:31:27.889Z,3.8
2018-11-07T00:31:47.530Z,3.5
2018-11-07T00:32:07.082Z,3.4
2018-11-07T00:32:26.728Z,3.6
2018-11-07T00:32:46.278Z,3.7
2018-11-07T00:33:05.807Z,3.5
2018-11-07T00:33:25.396Z,3.4
2018-11-07T00:33:45.039Z,3.6
2018-11-07T00:34:04.577Z,3.3
2018-11-07T00:34:24.117Z,3.6
2018-11-07T00:34:43.677Z,3.8
2018-11-07T00:35:03.313Z,3.5
2018-11-07T00:35:22.856Z,3.4
2018-11-07T00:35:42.390Z,3.7
2018-11-07T00:36:01.949Z,3.5
2018-11-07T00:36:21.482Z,3.5
2018-11-07T00:36:41.046Z,3.6
2018-11-07T00:37:00.619Z,3.5
2018-11-07T00:37:20.283Z,3.5
2018-11-07T00:37:39.821Z,3.3
2018-11-07T00:37:59.427Z,3.4
2018-11-07T00:38:20.004Z,3.7
2018-11-07T00:38:39.612Z,3.5
2018-11-07T00:38:59.266Z,3.4
2018-11-07T00:39:18.885Z,3.5
2018-11-07T00:39:38.468Z,3.5
2018-11-07T00:39:58.992Z,3.5
2018-11-07T00:40:19.377Z,3.4
2018-11-07T00:40:39.311Z,3.8
2018-11-07T00:40:58.988Z,3.6
2018-11-07T00:41:18.489Z,3.8
2018-11-07T00:41:38.102Z,3.8
2018-11-07T00:41:58.742Z,3.8
2018-11-07T00:42:18.356Z,3.8
2018-11-07T00:42:37.955Z,3.6
2018-11-07T00:42:57.521Z,3.4
2018-11-07T00:43:17.093Z,3.4
2018-11-07T00:43:37.748Z,3.4
2018-11-07T00:43:57.327Z,3.2
2018-11-07T00:44:16.921Z,3.3
2018-11-07T00:44:36.521Z,3.6
2018-11-07T00:44:56.140Z,3.4
2018-11-07T00:45:15.793Z,3.4
2018-11-07T00:45:35.820Z,3.3
2018-11-07T00:45:56.154Z,3.4
2018-11-07T00:46:15.712Z,3.4
2018-11-07T00:46:35.293Z,3.6
2018-11-07T00:46:55.906Z,3.6
2018-11-07T00:47:15.503Z,3.6
2018-11-07T00:47:35.059Z,3.5
2018-11-07T00:47:54.679Z,3.4
2018-11-07T00:48:14.285Z,3.4
2018-11-07T00:48:34.751Z,3.8
2018-11-07T00:48:54.318Z,3.4
2018-11-07T00:49:13.844Z,3.5
2018-11-07T00:49:33.475Z,3.3
2018-11-07T00:49:54.066Z,3.2
2018-11-07T00:50:13.693Z,3.5
2018-11-07T00:50:33.275Z,3.5
2018-11-07T00:50:52.910Z,3.2
2018-11-07T00:51:12.514Z,3.4
2018-11-07T00:51:32.079Z,3.5
2018-11-07T00:51:51.597Z,3.6
2018-11-07T00:52:11.141Z,3.7
2018-11-07T00:52:30.802Z,3.4
2018-11-07T00:52:50.365Z,3.2
2018-11-07T00:53:09.913Z,3.5
2018-11-07T00:53:29.562Z,3.6
2018-11-07T00:53:49.118Z,3.5
2018-11-07T00:54:08.687Z,3.6
2018-11-07T00:54:28.249Z,3.6
2018-11-07T00:54:47.819Z,3.8
2018-11-07T00:55:07.418Z,3.6
2018-11-07T00:55:27.054Z,3.2
2018-11-07T00:55:46.680Z,3.2
2018-11-07T00:56:06.304Z,3.3
2018-11-07T00:56:26.856Z,3.1
2018-11-07T00:56:46.435Z,3.2
2018-11-07T00:57:05.993Z,3.5
2018-11-07T00:57:25.558Z,3.4
2018-11-07T00:57:45.113Z,3.3
2018-11-07T00:58:04.935Z,3.5
2018-11-07T00:58:24.359Z,3.3
2018-11-07T00:58:43.887Z,3.3
2018-11-07T00:59:04.508Z,2.9
2018-11-07T00:59:24.087Z,3
2018-11-07T00:59:43.662Z,3.3
2018-11-07T01:00:03.299Z,3.2
2018-11-07T01:00:23.008Z,3
2018-11-07T01:00:42.551Z,3.2
2018-11-07T01:01:02.184Z,3.1
2018-11-07T01:01:21.747Z,3.1
2018-11-07T01:01:41.271Z,3.5
2018-11-07T01:02:01.255Z,3.5
2018-11-07T01:02:20.802Z,3.3
2018-11-07T01:02:40.327Z,3.2
2018-11-07T01:02:59.875Z,3.1
2018-11-07T01:03:19.493Z,3.1
2018-11-07T01:03:39.000Z,3.2
2018-11-07T01:03:58.545Z,3.2
2018-11-07T01:04:18.085Z,3
2018-11-07T01:04:37.603Z,3.2
2018-11-07T01:04:57.189Z,3.1
2018-11-07T01:05:16.799Z,3
2018-11-07T01:05:36.456Z,2.8
2018-11-07T01:05:56.067Z,3.1
2018-11-07T01:06:15.682Z,3
2018-11-07T01:06:35.263Z,2.9
2018-11-07T01:06:54.842Z,3.1
2018-11-07T01:07:14.385Z,3.5
2018-11-07T01:07:33.941Z,3.3
2018-11-07T01:07:53.508Z,3
2018-11-07T01:08:13.155Z,3
2018-11-07T01:08:32.809Z,3
2018-11-07T01:08:52.359Z,3.2
2018-11-07T01:09:11.929Z,3.1
2018-11-07T01:09:31.495Z,3
2018-11-07T01:09:51.013Z,3.2
2018-11-07T01:10:10.605Z,3
2018-11-07T01:10:30.148Z,3.4
2018-11-07T01:10:49.808Z,3.1
2018-11-07T01:11:09.386Z,3.1
2018-11-07T01:11:28.929Z,3
2018-11-07T01:11:48.552Z,3.2
2018-11-07T01:12:08.092Z,3.1
2018-11-07T01:12:27.649Z,3
2018-11-07T01:12:47.205Z,3
2018-11-07T01:13:06.771Z,2.9
2018-11-07T01:13:26.331Z,2.9
2018-11-07T01:13:45.878Z,3
2018-11-07T01:14:05.455Z,3.2
2018-11-07T01:14:24.983Z,3.1
2018-11-07T01:14:44.508Z,3.2
2018-11-07T01:15:04.038Z,3.1
2018-11-07T01:15:23.579Z,3.3
2018-11-07T01:15:43.201Z,3.2
2018-11-07T01:16:02.704Z,3.2
2018-11-07T01:16:22.280Z,3.3
2018-11-07T01:16:41.933Z,3.1
2018-11-07T01:17:01.388Z,3
2018-11-07T01:17:20.918Z,3
2018-11-07T01:17:40.465Z,3
2018-11-07T01:17:59.987Z,3.2
2018-11-07T01:18:19.531Z,3
2018-11-07T01:18:39.064Z,3.1
2018-11-07T01:18:58.588Z,3.1
2018-11-07T01:19:18.119Z,3.3
2018-11-07T01:19:37.704Z,2.9
2018-11-07T01:19:57.267Z,2.8
2018-11-07T01:20:16.844Z,3
2018-11-07T01:20:36.378Z,3.2
2018-11-07T01:20:56.059Z,3
2018-11-07T01:21:15.560Z,3.3
2018-11-07T01:21:35.085Z,3.2
2018-11-07T01:21:54.602Z,3.2
2018-11-07T01:22:14.223Z,3.2
2018-11-07T01:22:33.730Z,3.4
2018-11-07T01:22:53.270Z,3.2
2018-11-07T01:23:12.823Z,3
2018-11-07T01:23:32.373Z,3.4
2018-11-07T01:23:51.912Z,3.4
2018-11-07T01:24:11.441Z,3.1
2018-11-07T01:24:30.966Z,2.9
2018-11-07T01:24:50.535Z,3
2018-11-07T01:25:10.091Z,3
2018-11-07T01:25:29.638Z,3.1
2018-11-07T01:25:49.226Z,3.2
2018-11-07T01:26:08.751Z,3.1
2018-11-07T01:26:28.288Z,3
2018-11-07T01:26:47.836Z,3.1
2018-11-07T01:27:07.413Z,2.9
2018-11-07T01:27:27.017Z,3
2018-11-07T01:27:46.587Z,3
2018-11-07T01:28:06.246Z,3.1
2018-11-07T01:28:25.864Z,2.9
2018-11-07T01:28:45.285Z,3
2018-11-07T01:29:04.895Z,2.9
2018-11-07T01:29:24.474Z,3
2018-11-07T01:29:44.071Z,3
2018-11-07T01:30:03.612Z,2.8
2018-11-07T01:30:23.207Z,2.9
2018-11-07T01:30:43.839Z,3.3
2018-11-07T01:31:03.592Z,3.1
2018-11-07T01:31:23.172Z,2.9
2018-11-07T01:31:42.788Z,3.2
2018-11-07T01:32:03.352Z,3.2
2018-11-07T01:32:22.982Z,3.1
2018-11-07T01:32:42.592Z,3
2018-11-07T01:33:02.194Z,2.9
2018-11-07T01:33:21.747Z,3
2018-11-07T01:33:41.306Z,3
2018-11-07T01:34:00.847Z,3
2018-11-07T01:34:20.427Z,2.9
2018-11-07T01:34:39.979Z,3
2018-11-07T01:34:59.571Z,3
2018-11-07T01:35:19.083Z,2.6
2018-11-07T01:35:38.616Z,2.9
2018-11-07T01:35:58.191Z,3
2018-11-07T01:36:17.706Z,2.8
2018-11-07T01:36:37.231Z,2.8
2018-11-07T01:36:56.797Z,2.7
2018-11-07T01:37:16.287Z,2.6
2018-11-07T01:37:35.837Z,2.8
2018-11-07T01:37:55.364Z,3
2018-11-07T01:38:15.937Z,3.1
2018-11-07T01:38:35.464Z,2.9
2018-11-07T01:38:54.999Z,3.1
2018-11-07T01:39:14.530Z,2.9
2018-11-07T01:39:34.055Z,2.7
2018-11-07T01:39:53.580Z,2.7
2018-11-07T01:40:13.096Z,2.8
2018-11-07T01:40:32.609Z,2.9
2018-11-07T01:40:52.161Z,2.9
2018-11-07T01:41:11.765Z,3
2018-11-07T01:41:31.274Z,3.1
2018-11-07T01:41:50.898Z,2.9
2018-11-07T01:42:10.423Z,2.9
2018-11-07T01:42:29.912Z,3.2
2018-11-07T01:42:49.449Z,2.9
2018-11-07T01:43:08.975Z,2.9
2018-11-07T01:43:28.512Z,3
2018-11-07T01:43:48.061Z,2.6
2018-11-07T01:44:07.690Z,2.8
2018-11-07T01:44:27.413Z,2.8
2018-11-07T01:44:47.009Z,2.8
2018-11-07T01:45:06.764Z,3
2018-11-07T01:45:26.374Z,2.8
2018-11-07T01:45:45.981Z,2.6
2018-11-07T01:46:05.625Z,2.9
2018-11-07T01:46:25.281Z,3.1
2018-11-07T01:46:44.865Z,2.9
2018-11-07T01:47:04.534Z,2.8
2018-11-07T01:47:24.122Z,2.8
2018-11-07T01:47:43.737Z,2.7
2018-11-07T01:48:03.348Z,2.6
2018-11-07T01:48:22.979Z,2.6
2018-11-07T01:48:42.550Z,2.7
2018-11-07T01:49:02.078Z,2.9
2018-11-07T01:49:21.628Z,2.8
2018-11-07T01:49:41.151Z,2.7
2018-11-07T01:50:00.705Z,2.8
2018-11-07T01:50:20.237Z,2.6
2018-11-07T01:50:39.775Z,2.7
2018-11-07T01:50:59.366Z,3
2018-11-07T01:51:18.951Z,2.6
2018-11-07T01:51:38.490Z,2.6
2018-11-07T01:51:58.061Z,2.8
2018-11-07T01:52:17.581Z,2.8
2018-11-07T01:52:37.165Z,2.4
2018-11-07T01:52:56.708Z,2.4
2018-11-07T01:53:16.267Z,2.4
2018-11-07T01:53:36.083Z,2.7
2018-11-07T01:53:55.624Z,2.8
2018-11-07T01:54:15.165Z,2.7
2018-11-07T01:54:35.716Z,2.9
2018-11-07T01:54:55.264Z,2.9
2018-11-07T01:55:14.823Z,2.7
2018-11-07T01:55:34.332Z,3.1
2018-11-07T01:55:53.860Z,2.8
2018-11-07T01:56:13.414Z,2.6
2018-11-07T01:56:33.007Z,2.5
2018-11-07T01:56:52.560Z,2.5
2018-11-07T01:57:12.078Z,2.5
2018-11-07T01:57:31.613Z,2.8
2018-11-07T01:57:51.200Z,2.9
2018-11-07T01:58:10.819Z,3.1
2018-11-07T01:58:30.425Z,3
2018-11-07T01:58:50.020Z,3
2018-11-07T01:59:09.535Z,2.8
2018-11-07T01:59:29.237Z,2.8
2018-11-07T01:59:48.751Z,2.7
2018-11-07T02:00:08.314Z,2.8
2018-11-07T02:00:27.932Z,2.6
2018-11-07T02:00:47.434Z,2.5
2018-11-07T02:01:06.964Z,3
2018-11-07T02:01:26.545Z,2.7
2018-11-07T02:01:46.111Z,2.8
2018-11-07T02:02:06.645Z,3.2
2018-11-07T02:02:26.212Z,2.9
2018-11-07T02:02:46.748Z,3
2018-11-07T02:03:06.331Z,2.9
2018-11-07T02:03:25.885Z,2.5
2018-11-07T02:03:45.409Z,2.5
2018-11-07T02:04:04.928Z,2.6
2018-11-07T02:04:24.437Z,2.7
2018-11-07T02:04:43.995Z,2.6
2018-11-07T02:05:03.585Z,2.5
2018-11-07T02:05:24.208Z,2.4
2018-11-07T02:05:43.866Z,2.5
2018-11-07T02:06:03.515Z,2.6
2018-11-07T02:06:23.112Z,2.4
2018-11-07T02:06:42.646Z,2.6
2018-11-07T02:07:02.266Z,2.7
2018-11-07T02:07:21.810Z,2.3
2018-11-07T02:07:41.315Z,2.5
2018-11-07T02:08:00.866Z,2.7
2018-11-07T02:08:20.453Z,2.6
2018-11-07T02:08:39.998Z,2.6
2018-11-07T02:08:59.656Z,2.7
2018-11-07T02:09:20.209Z,2.5
2018-11-07T02:09:39.778Z,2.4
2018-11-07T02:10:00.337Z,2.5
2018-11-07T02:10:19.948Z,2.6
2018-11-07T02:10:39.549Z,2.7
2018-11-07T02:11:00.063Z,2.7
2018-11-07T02:11:19.659Z,2.5
2018-11-07T02:11:39.323Z,2.6
2018-11-07T02:11:58.944Z,2.5
2018-11-07T02:12:18.489Z,2.4
2018-11-07T02:12:38.080Z,2.4
2018-11-07T02:12:57.688Z,2.8
2018-11-07T02:13:17.245Z,2.9
2018-11-07T02:13:36.842Z,2.6
2018-11-07T02:13:56.443Z,2.8
2018-11-07T02:14:15.994Z,3
2018-11-07T02:14:35.623Z,2.7
2018-11-07T02:14:56.198Z,2.9
2018-11-07T02:15:15.806Z,2.9
2018-11-07T02:15:35.364Z,2.8
2018-11-07T02:15:54.917Z,2.8
2018-11-07T02:16:14.465Z,2.7
2018-11-07T02:16:34.054Z,2.5
2018-11-07T02:16:53.581Z,2.8
2018-11-07T02:17:13.216Z,2.8
2018-11-07T02:17:32.752Z,2.9
2018-11-07T02:17:52.286Z,2.5
2018-11-07T02:18:11.810Z,2.5
2018-11-07T02:18:31.384Z,2.7
2018-11-07T02:18:50.943Z,2.7
2018-11-07T02:19:10.494Z,2.5
2018-11-07T02:19:30.038Z,2.7
2018-11-07T02:19:49.580Z,2.8
2018-11-07T02:20:09.122Z,2.5
2018-11-07T02:20:28.668Z,2.5
2018-11-07T02:20:48.160Z,2.6
2018-11-07T02:21:07.705Z,2.8
2018-11-07T02:21:28.340Z,2.6
2018-11-07T02:21:47.871Z,2.4
2018-11-07T02:22:07.422Z,2.4
2018-11-07T02:22:27.004Z,2.6
2018-11-07T02:22:46.700Z,2.7
2018-11-07T02:23:06.234Z,2.4
2018-11-07T02:23:25.765Z,2.3
2018-11-07T02:23:45.399Z,2.3
2018-11-07T02:24:04.982Z,2.6
2018-11-07T02:24:24.542Z,2.6
2018-11-07T02:24:44.125Z,2.6
2018-11-07T02:25:03.671Z,2.7
2018-11-07T02:25:23.349Z,2.7
2018-11-07T02:25:42.956Z,2.7
2018-11-07T02:26:02.524Z,3.2
2018-11-07T02:26:22.073Z,3.4
2018-11-07T02:26:41.605Z,3.7
2018-11-07T02:27:02.139Z,3.6
2018-11-07T02:27:21.684Z,3.7
2018-11-07T02:27:41.249Z,4.1
2018-11-07T02:28:00.790Z,4.4
2018-11-07T02:28:20.329Z,4.3
2018-11-07T02:28:39.990Z,4.1
2018-11-07T02:28:59.504Z,3.7
2018-11-07T02:29:19.014Z,4
2018-11-07T02:29:38.556Z,4.1
2018-11-07T02:29:58.175Z,4.2
2018-11-07T02:30:17.716Z,3.8
2018-11-07T02:30:37.224Z,3.7
2018-11-07T02:30:56.745Z,3.8
2018-11-07T02:31:16.272Z,3.9
2018-11-07T02:31:35.785Z,3.9
2018-11-07T02:31:55.360Z,4
2018-11-07T02:32:14.951Z,4.1
2018-11-07T02:32:34.463Z,4.2
2018-11-07T02:32:54.107Z,4.1
2018-11-07T02:33:13.669Z,3.9
2018-11-07T02:33:33.213Z,3.8
2018-11-07T02:33:52.773Z,3.8
2018-11-07T02:34:12.311Z,3.9
2018-11-07T02:34:31.887Z,4
2018-11-07T02:34:51.440Z,3.9
2018-11-07T02:35:11.024Z,4
2018-11-07T02:35:30.644Z,4
2018-11-07T02:35:50.176Z,3.8
2018-11-07T02:36:09.721Z,3.6
2018-11-07T02:36:29.238Z,3.9
2018-11-07T02:36:48.870Z,3.9
2018-11-07T02:37:08.581Z,4
2018-11-07T02:37:28.005Z,4
2018-11-07T02:37:47.507Z,4.2
2018-11-07T02:38:07.025Z,4
2018-11-07T02:38:26.538Z,3.8
2018-11-07T02:38:46.130Z,4
2018-11-07T02:39:06.606Z,4.1
2018-11-07T02:39:26.140Z,4.3
2018-11-07T02:39:45.687Z,4.4
2018-11-07T02:40:05.218Z,4.3
2018-11-07T02:40:24.760Z,4.5
2018-11-07T02:40:44.298Z,4.4
2018-11-07T02:41:03.830Z,4.1
2018-11-07T02:41:23.370Z,4
2018-11-07T02:41:43.040Z,4.2
2018-11-07T02:42:02.729Z,4.1
2018-11-07T02:42:22.093Z,4.2
2018-11-07T02:42:41.659Z,4.5
2018-11-07T02:43:01.184Z,4.3
2018-11-07T02:43:20.726Z,4.3
2018-11-07T02:43:40.231Z,4.5
2018-11-07T02:43:59.815Z,5.4
2018-11-07T02:44:19.356Z,5.5
2018-11-07T02:44:38.929Z,4.8
2018-11-07T02:44:58.562Z,4.7
2018-11-07T02:45:18.120Z,5.2
2018-11-07T02:45:37.632Z,5.5
2018-11-07T02:45:57.190Z,5.1
2018-11-07T02:46:16.718Z,5.2
2018-11-07T02:46:36.278Z,5
2018-11-07T02:46:55.953Z,5.5
2018-11-07T02:47:15.490Z,5.6
2018-11-07T02:47:35.038Z,5.3
2018-11-07T02:47:54.581Z,5.6
2018-11-07T02:48:14.075Z,5.4
2018-11-07T02:48:33.645Z,5.6
2018-11-07T02:48:53.172Z,5.7
2018-11-07T02:49:12.707Z,5.8
2018-11-07T02:49:32.254Z,6.1
2018-11-07T02:49:51.829Z,6.3
2018-11-07T02:50:11.394Z,6.3
2018-11-07T02:50:30.960Z,6.7
2018-11-07T02:50:50.509Z,6.5
2018-11-07T02:51:10.054Z,6.7
2018-11-07T02:51:29.557Z,6.7
2018-11-07T02:51:49.205Z,6.3
2018-11-07T02:52:08.821Z,6.6
2018-11-07T02:52:29.363Z,6.9
2018-11-07T02:52:48.913Z,6.9
2018-11-07T02:53:08.462Z,6.7
2018-11-07T02:53:28.064Z,6.6
2018-11-07T02:53:47.581Z,7.2
2018-11-07T02:54:07.068Z,7
2018-11-07T02:54:26.610Z,6.8
2018-11-07T02:54:46.135Z,6.8
2018-11-07T02:55:05.668Z,6.5
2018-11-07T02:55:25.249Z,6.6
2018-11-07T02:55:44.826Z,6.5
2018-11-07T02:56:04.379Z,6.4
2018-11-07T02:56:23.925Z,7
2018-11-07T02:56:43.469Z,6.8
2018-11-07T02:57:03.043Z,6.7
2018-11-07T02:57:22.600Z,6.9
2018-11-07T02:57:42.178Z,7
2018-11-07T02:58:01.745Z,7.1
2018-11-07T02:58:21.294Z,6.9
2018-11-07T02:58:40.871Z,6.8
2018-11-07T02:59:00.395Z,6.9
2018-11-07T02:59:19.950Z,6.7
2018-11-07T02:59:39.491Z,6.9
2018-11-07T02:59:59.085Z,7.2
2018-11-07T03:00:18.631Z,6.8
2018-11-07T03:00:38.198Z,6.9
2018-11-07T03:00:58.742Z,7.1
2018-11-07T03:01:18.396Z,7.3
2018-11-07T03:01:37.838Z,7.1
2018-11-07T03:01:57.457Z,7
2018-11-07T03:02:17.059Z,7.2
2018-11-07T03:02:36.678Z,6.9
2018-11-07T03:02:56.246Z,7.2
2018-11-07T03:03:15.828Z,7.4
2018-11-07T03:03:35.461Z,8.2
2018-11-07T03:03:55.012Z,7.6
2018-11-07T03:04:14.638Z,7.2
2018-11-07T03:04:34.267Z,7.5
2018-11-07T03:04:53.865Z,7.7
2018-11-07T03:05:13.427Z,7.9
2018-11-07T03:05:33.021Z,7.5
2018-11-07T03:05:53.611Z,8.1
2018-11-07T03:06:13.195Z,8.3
2018-11-07T03:06:32.809Z,7.8
2018-11-07T03:06:52.330Z,7.7
2018-11-07T03:07:11.933Z,8
2018-11-07T03:07:31.509Z,8.2
2018-11-07T03:07:51.143Z,7.9
2018-11-07T03:08:10.696Z,8.2
2018-11-07T03:08:30.279Z,8.5
2018-11-07T03:08:49.824Z,8
2018-11-07T03:09:09.458Z,8.1
2018-11-07T03:09:29.992Z,7.8
2018-11-07T03:09:49.612Z,7.9
2018-11-07T03:10:09.151Z,8.1
2018-11-07T03:10:29.716Z,7.9
2018-11-07T03:10:50.261Z,7.6
2018-11-07T03:11:09.804Z,8
2018-11-07T03:11:29.394Z,7.7
2018-11-07T03:11:48.973Z,7.5
2018-11-07T03:12:08.575Z,7.5
2018-11-07T03:12:28.093Z,7.8
2018-11-07T03:12:47.714Z,7.7
2018-11-07T03:13:07.314Z,7.8
2018-11-07T03:13:26.885Z,7.8
2018-11-07T03:13:46.536Z,8.3
2018-11-07T03:14:06.071Z,8.1
2018-11-07T03:14:25.639Z,8.3
2018-11-07T03:14:45.184Z,7.8
2018-11-07T03:15:04.771Z,7.5
2018-11-07T03:15:24.328Z,7.9
2018-11-07T03:15:43.894Z,8.2
2018-11-07T03:16:03.499Z,8.7
2018-11-07T03:16:23.066Z,8.8
2018-11-07T03:16:42.626Z,9.1
2018-11-07T03:17:02.527Z,9.4
2018-11-07T03:17:22.090Z,9.5
2018-11-07T03:17:41.714Z,9.3
2018-11-07T03:18:01.248Z,8.8
2018-11-07T03:18:20.767Z,8.8
2018-11-07T03:18:40.362Z,8.8
2018-11-07T03:18:59.955Z,8.9
2018-11-07T03:19:19.467Z,9.2
2018-11-07T03:19:39.029Z,9.6
2018-11-07T03:19:58.588Z,9.8
2018-11-07T03:20:18.130Z,10.1
2018-11-07T03:20:37.700Z,10.3
2018-11-07T03:20:57.290Z,10.6
2018-11-07T03:21:16.847Z,10.7
2018-11-07T03:21:36.399Z,10.3
2018-11-07T03:21:55.965Z,10.2
2018-11-07T03:22:15.541Z,10.8
2018-11-07T03:22:35.167Z,11
2018-11-07T03:22:54.776Z,10.8
2018-11-07T03:23:14.305Z,11.1
2018-11-07T03:23:33.859Z,11
2018-11-07T03:23:53.404Z,11.1
2018-11-07T03:24:12.978Z,10.8
2018-11-07T03:24:32.556Z,10.9
2018-11-07T03:24:52.082Z,11
2018-11-07T03:25:11.608Z,11.4
2018-11-07T03:25:31.126Z,11.1
2018-11-07T03:25:50.665Z,10.6
2018-11-07T03:26:10.193Z,10.4
2018-11-07T03:26:29.795Z,11.1
2018-11-07T03:26:49.327Z,10.4
2018-11-07T03:27:08.858Z,11
2018-11-07T03:27:28.451Z,11.2
2018-11-07T03:27:47.972Z,11
2018-11-07T03:28:08.484Z,10.6
2018-11-07T03:28:28.059Z,11.1
2018-11-07T03:28:47.581Z,11.2
2018-11-07T03:29:07.138Z,10.9
2018-11-07T03:29:26.689Z,11.4
2018-11-07T03:29:46.248Z,11
2018-11-07T03:30:05.792Z,10.4
2018-11-07T03:30:25.334Z,10.5
2018-11-07T03:30:45.878Z,11.2
2018-11-07T03:31:05.401Z,10.9
2018-11-07T03:31:25.917Z,11
2018-11-07T03:31:45.469Z,11
2018-11-07T03:32:05.052Z,10.4
2018-11-07T03:32:24.647Z,11
2018-11-07T03:32:44.187Z,11.3
2018-11-07T03:33:04.740Z,10.3
2018-11-07T03:33:24.264Z,9.2
2018-11-07T03:33:43.804Z,7.7
2018-11-07T03:34:03.329Z,6.8
2018-11-07T03:34:22.913Z,6.3
2018-11-07T03:34:42.520Z,6.3
2018-11-07T03:35:02.121Z,6.7
2018-11-07T03:35:21.671Z,6.2
2018-11-07T03:35:41.228Z,6.6
2018-11-07T03:36:00.835Z,6.7
2018-11-07T03:36:20.345Z,6.9
2018-11-07T03:36:39.915Z,6.2
2018-11-07T03:36:59.470Z,4.9
2018-11-07T03:37:19.034Z,4.6
2018-11-07T03:37:38.618Z,4.4
2018-11-07T03:37:58.155Z,4.5
2018-11-07T03:38:17.691Z,4.5
2018-11-07T03:38:37.314Z,4.2
2018-11-07T03:38:56.843Z,4.2
2018-11-07T03:39:16.397Z,4.1
2018-11-07T03:39:36.026Z,3.8
2018-11-07T03:39:56.567Z,4
2018-11-07T03:40:16.007Z,4.3
2018-11-07T03:40:35.526Z,3.7
2018-11-07T03:40:55.083Z,3.7
2018-11-07T03:41:14.626Z,4
2018-11-07T03:41:34.131Z,4.3
2018-11-07T03:41:53.657Z,4.8
2018-11-07T03:42:13.164Z,5
2018-11-07T03:42:32.715Z,5
2018-11-07T03:42:52.271Z,4.5
2018-11-07T03:43:12.705Z,4.4
2018-11-07T03:43:32.222Z,4.3
2018-11-07T03:43:51.740Z,4.9
2018-11-07T03:44:11.294Z,4.4
2018-11-07T03:44:30.858Z,4.1
2018-11-07T03:44:50.346Z,4.9
2018-11-07T03:45:09.906Z,4.8
2018-11-07T03:45:29.428Z,4.6
2018-11-07T03:45:48.990Z,4.2
2018-11-07T03:46:08.564Z,4.9
2018-11-07T03:46:28.088Z,5.1
2018-11-07T03:46:47.664Z,4.7
2018-11-07T03:47:07.197Z,5.4
2018-11-07T03:47:26.733Z,5.7
2018-11-07T03:47:47.297Z,5.4
2018-11-07T03:48:06.842Z,5.1
2018-11-07T03:48:26.393Z,5
2018-11-07T03:48:45.955Z,5
2018-11-07T03:49:05.489Z,5.3
2018-11-07T03:49:25.006Z,5.2
2018-11-07T03:49:44.587Z,5.5
2018-11-07T03:50:04.116Z,5.3
2018-11-07T03:50:23.646Z,5
2018-11-07T03:50:43.187Z,5
2018-11-07T03:51:02.716Z,5.2
2018-11-07T03:51:22.270Z,4.9
2018-11-07T03:51:41.819Z,5
2018-11-07T03:52:02.346Z,5.1
2018-11-07T03:52:22.895Z,5.3
2018-11-07T03:52:42.492Z,4.9
2018-11-07T03:53:02.044Z,5.1
2018-11-07T03:53:21.632Z,4.8
2018-11-07T03:53:41.150Z,4.8
2018-11-07T03:54:00.675Z,4.8
2018-11-07T03:54:20.216Z,5.1
2018-11-07T03:54:39.747Z,5
2018-11-07T03:55:00.253Z,5.1
2018-11-07T03:55:19.876Z,4.9
2018-11-07T03:55:39.411Z,5.1
2018-11-07T03:55:58.948Z,5
2018-11-07T03:56:18.546Z,5.1
2018-11-07T03:56:38.074Z,5.7
2018-11-07T03:56:57.671Z,5.5
2018-11-07T03:57:17.219Z,5.2
2018-11-07T03:57:36.755Z,5.1
2018-11-07T03:57:56.338Z,5.2
2018-11-07T03:58:15.886Z,5.5
2018-11-07T03:58:35.409Z,5.3
2018-11-07T03:58:54.982Z,5.1
2018-11-07T03:59:14.577Z,5.1
2018-11-07T03:59:34.115Z,4.9
2018-11-07T03:59:53.694Z,4.7
2018-11-07T04:00:13.187Z,5.2
2018-11-07T04:00:32.739Z,5.3
2018-11-07T04:00:52.303Z,4.9
2018-11-07T04:01:11.843Z,4.9
2018-11-07T04:01:31.398Z,4.8
2018-11-07T04:01:50.905Z,4.7
2018-11-07T04:02:10.437Z,4.6
2018-11-07T04:02:30.005Z,4.5
2018-11-07T04:02:49.523Z,4.6
2018-11-07T04:03:10.155Z,4.8
2018-11-07T04:03:29.664Z,4.3
2018-11-07T04:03:49.225Z,3.9
2018-11-07T04:04:08.843Z,4.5
2018-11-07T04:04:28.385Z,4.5
2018-11-07T04:04:48.042Z,4.1
2018-11-07T04:05:07.599Z,3.8
2018-11-07T04:05:27.180Z,4.3
2018-11-07T04:05:46.755Z,4.2
2018-11-07T04:06:07.023Z,4.5
2018-11-07T04:06:26.575Z,4.1
2018-11-07T04:06:46.131Z,4.1
2018-11-07T04:07:05.708Z,4.3
2018-11-07T04:07:25.275Z,4.1
2018-11-07T04:07:44.889Z,4
2018-11-07T04:08:04.482Z,4.1
2018-11-07T04:08:24.053Z,3.8
2018-11-07T04:08:44.616Z,3.9
2018-11-07T04:09:04.163Z,4.2
2018-11-07T04:09:24.767Z,4.2
2018-11-07T04:09:44.319Z,4.1
2018-11-07T04:10:03.883Z,4.2
2018-11-07T04:10:23.523Z,4.2
2018-11-07T04:10:43.155Z,3.8
2018-11-07T04:11:04.681Z,4
2018-11-07T04:11:24.316Z,4
2018-11-07T04:11:43.890Z,3.9
2018-11-07T04:12:03.448Z,4
2018-11-07T04:12:23.021Z,4.1
2018-11-07T04:12:42.596Z,4.1
2018-11-07T04:13:02.407Z,4
2018-11-07T04:13:21.994Z,3.8
2018-11-07T04:13:41.608Z,3.7
2018-11-07T04:14:01.214Z,3.7
2018-11-07T04:14:20.875Z,3.8
2018-11-07T04:14:40.432Z,3.7
2018-11-07T04:15:00.072Z,3.9
2018-11-07T04:15:19.666Z,4
2018-11-07T04:15:39.256Z,4
2018-11-07T04:15:58.856Z,4.1
2018-11-07T04:16:18.471Z,4
2018-11-07T04:16:38.079Z,4
2018-11-07T04:16:57.794Z,4
2018-11-07T04:17:17.340Z,3.7
2018-11-07T04:17:36.945Z,3.5
2018-11-07T04:17:56.508Z,3.9
2018-11-07T04:18:16.136Z,4.1
2018-11-07T04:18:35.760Z,3.6
2018-11-07T04:18:55.324Z,3.8
2018-11-07T04:19:14.884Z,3.8
2018-11-07T04:19:34.399Z,3.6
2018-11-07T04:19:54.006Z,3.8
2018-11-07T04:20:13.720Z,3.9
2018-11-07T04:20:33.336Z,4
2018-11-07T04:20:52.864Z,4.1
2018-11-07T04:21:12.398Z,4
2018-11-07T04:21:32.957Z,4
2018-11-07T04:21:52.470Z,4.2
2018-11-07T04:22:11.994Z,4.2
2018-11-07T04:22:31.518Z,4
2018-11-07T04:22:51.047Z,4
2018-11-07T04:23:10.695Z,4.1
2018-11-07T04:23:30.250Z,4.1
2018-11-07T04:23:51.312Z,4.4
2018-11-07T04:24:10.868Z,3.9
2018-11-07T04:24:30.415Z,3.9
2018-11-07T04:24:50.987Z,4
2018-11-07T04:25:11.543Z,4.1
2018-11-07T04:25:31.113Z,4
2018-11-07T04:25:51.681Z,4
2018-11-07T04:26:11.237Z,4
2018-11-07T04:26:30.807Z,4.2
2018-11-07T04:26:50.391Z,3.9
2018-11-07T04:27:10.033Z,4
2018-11-07T04:27:29.699Z,3.9
2018-11-07T04:27:49.241Z,4
2018-11-07T04:28:08.897Z,3.9
2018-11-07T04:28:28.513Z,3.8
2018-11-07T04:28:48.730Z,4
2018-11-07T04:29:08.898Z,4.2
2018-11-07T04:29:28.472Z,3.6
2018-11-07T04:29:48.036Z,3.9
2018-11-07T04:30:07.621Z,4.1
2018-11-07T04:30:27.159Z,3.9
2018-11-07T04:30:46.683Z,3.6
2018-11-07T04:31:06.204Z,3.7
2018-11-07T04:31:25.781Z,3.7
2018-11-07T04:31:45.293Z,3.8
2018-11-07T04:32:04.851Z,4
2018-11-07T04:32:24.394Z,3.7
2018-11-07T04:32:43.943Z,3.9
2018-11-07T04:33:04.545Z,3.8